createdAt,value
2018-07-06T00:00:16.636Z,3.90
2018-07-06T00:00:55.624Z,3.80
2018-07-06T00:01:34.755Z,3.70
2018-07-06T00:02:13.727Z,3.80
2018-07-06T00:02:52.820Z,3.67
2018-07-06T00:03:31.792Z,3.80
2018-07-06T00:04:10.908Z,3.90
2018-07-06T00:04:49.941Z,3.57
2018-07-06T00:05:23.156Z,3.73
2018-07-06T00:06:02.296Z,3.83
2018-07-06T00:06:41.173Z,3.93
2018-07-06T00:07:21.314Z,3.90
2018-07-06T00:08:00.265Z,3.93
2018-07-06T00:08:39.452Z,4.00
2018-07-06T00:09:18.489Z,3.40
2018-07-06T00:09:57.304Z,3.70
2018-07-06T00:10:36.467Z,3.80
2018-07-06T00:11:15.569Z,3.90
2018-07-06T00:11:54.680Z,3.67
2018-07-06T00:12:33.564Z,3.50
2018-07-06T00:13:12.832Z,4.10
2018-07-06T00:13:45.916Z,3.93
2018-07-06T00:14:25.029Z,4.03
2018-07-06T00:15:03.917Z,4.33
2018-07-06T00:15:42.940Z,4.20
2018-07-06T00:16:22.174Z,4.10
2018-07-06T00:17:01.632Z,4.13
2018-07-06T00:17:40.868Z,3.70
2018-07-06T00:18:19.954Z,3.40
2018-07-06T00:18:59.103Z,3.97
2018-07-06T00:19:38.188Z,4.50
2018-07-06T00:20:17.370Z,3.90
2018-07-06T00:20:56.963Z,3.60
2018-07-06T00:21:36.004Z,3.63
2018-07-06T00:22:15.125Z,4.10
2018-07-06T00:22:54.417Z,4.80
2018-07-06T00:23:33.504Z,3.93
2018-07-06T00:24:12.685Z,4.40
2018-07-06T00:24:51.828Z,4.57
2018-07-06T00:25:30.810Z,4.50
2018-07-06T00:26:09.643Z,3.80
2018-07-06T00:26:48.738Z,3.80
2018-07-06T00:27:27.779Z,4.10
2018-07-06T00:28:06.936Z,4.03
2018-07-06T00:28:46.019Z,4.50
2018-07-06T00:29:25.022Z,4.37
2018-07-06T00:30:03.836Z,4.50
2018-07-06T00:30:42.989Z,4.30
2018-07-06T00:31:22.087Z,4.40
2018-07-06T00:32:01.067Z,4.40
2018-07-06T00:32:39.941Z,4.17
2018-07-06T00:33:18.903Z,4.20
2018-07-06T00:33:57.896Z,4.13
2018-07-06T00:34:36.880Z,3.90
2018-07-06T00:35:15.957Z,3.97
2018-07-06T00:35:54.969Z,4.60
2018-07-06T00:36:33.977Z,3.90
2018-07-06T00:37:13.036Z,4.20
2018-07-06T00:37:52.032Z,4.20
2018-07-06T00:38:30.824Z,4.47
2018-07-06T00:39:09.841Z,4.30
2018-07-06T00:39:48.968Z,3.80
2018-07-06T00:40:28.025Z,4.63
2018-07-06T00:41:07.336Z,4.60
2018-07-06T00:41:46.444Z,3.87
2018-07-06T00:42:25.433Z,4.57
2018-07-06T00:43:04.515Z,4.70
2018-07-06T00:43:43.512Z,4.30
2018-07-06T00:44:22.671Z,3.57
2018-07-06T00:45:02.052Z,4.53
2018-07-06T00:45:41.030Z,4.23
2018-07-06T00:46:20.051Z,4.33
2018-07-06T00:46:59.139Z,4.10
2018-07-06T00:47:38.035Z,4.67
2018-07-06T00:48:17.134Z,3.77
2018-07-06T00:48:56.235Z,4.33
2018-07-06T00:49:35.052Z,4.50
2018-07-06T00:50:14.004Z,4.63
2018-07-06T00:50:53.064Z,4.43
2018-07-06T00:51:31.998Z,4.37
2018-07-06T00:52:10.991Z,4.13
2018-07-06T00:52:50.020Z,4.43
2018-07-06T00:53:28.898Z,3.87
2018-07-06T00:54:08.037Z,4.50
2018-07-06T00:54:47.070Z,4.03
2018-07-06T00:55:26.213Z,4.67
2018-07-06T00:56:05.061Z,4.53
2018-07-06T00:56:44.088Z,4.60
2018-07-06T00:57:23.136Z,4.40
2018-07-06T00:58:02.103Z,4.67
2018-07-06T00:58:35.249Z,4.53
2018-07-06T00:59:14.248Z,4.70
2018-07-06T00:59:53.292Z,4.37
2018-07-06T01:00:32.183Z,4.67
2018-07-06T01:01:11.115Z,4.60
2018-07-06T01:01:50.180Z,4.63
2018-07-06T01:02:29.203Z,4.60
2018-07-06T01:03:08.600Z,4.53
2018-07-06T01:03:47.528Z,4.53
2018-07-06T01:04:26.655Z,4.87
2018-07-06T01:05:05.816Z,4.57
2018-07-06T01:05:44.852Z,4.90
2018-07-06T01:06:24.125Z,4.67
2018-07-06T01:07:03.139Z,5.00
2018-07-06T01:07:42.152Z,4.47
2018-07-06T01:08:21.303Z,4.77
2018-07-06T01:09:00.652Z,4.70
2018-07-06T01:09:40.107Z,4.40
2018-07-06T01:10:19.238Z,4.87
2018-07-06T01:10:58.358Z,4.93
2018-07-06T01:11:37.356Z,4.47
2018-07-06T01:12:22.176Z,5.07
2018-07-06T01:13:02.431Z,4.73
2018-07-06T01:13:41.501Z,4.53
2018-07-06T01:14:20.669Z,4.57
2018-07-06T01:15:04.166Z,4.73
2018-07-06T01:15:43.178Z,5.50
2018-07-06T01:16:22.199Z,5.13
2018-07-06T01:17:01.220Z,4.77
2018-07-06T01:17:40.318Z,4.73
2018-07-06T01:18:19.256Z,5.17
2018-07-06T01:18:58.215Z,5.00
2018-07-06T01:19:37.078Z,5.07
2018-07-06T01:20:15.996Z,4.70
2018-07-06T01:20:55.345Z,4.37
2018-07-06T01:21:34.263Z,4.70
2018-07-06T01:22:13.307Z,4.83
2018-07-06T01:22:52.312Z,4.90
2018-07-06T01:23:31.884Z,4.90
2018-07-06T01:24:10.900Z,5.73
2018-07-06T01:24:50.110Z,4.77
2018-07-06T01:25:29.217Z,5.00
2018-07-06T01:26:08.257Z,4.90
2018-07-06T01:26:47.309Z,5.13
2018-07-06T01:27:26.164Z,4.83
2018-07-06T01:28:05.349Z,4.90
2018-07-06T01:28:44.524Z,4.63
2018-07-06T01:29:23.777Z,5.27
2018-07-06T01:30:02.763Z,5.47
2018-07-06T01:30:41.919Z,5.00
2018-07-06T01:31:20.780Z,5.10
2018-07-06T01:31:59.773Z,4.80
2018-07-06T01:32:38.712Z,5.33
2018-07-06T01:33:17.819Z,4.60
2018-07-06T01:33:56.887Z,4.93
2018-07-06T01:34:35.995Z,5.17
2018-07-06T01:35:15.121Z,5.23
2018-07-06T01:35:54.168Z,5.20
2018-07-06T01:36:33.122Z,4.70
2018-07-06T01:37:12.113Z,5.40
2018-07-06T01:37:51.217Z,5.10
2018-07-06T01:38:30.449Z,4.67
2018-07-06T01:39:09.464Z,5.20
2018-07-06T01:39:48.666Z,5.43
2018-07-06T01:40:27.592Z,5.07
2018-07-06T01:41:06.508Z,5.40
2018-07-06T01:41:45.582Z,5.10
2018-07-06T01:42:18.731Z,5.40
2018-07-06T01:42:57.592Z,5.40
2018-07-06T01:43:36.703Z,4.87
2018-07-06T01:44:15.786Z,5.10
2018-07-06T01:44:54.794Z,4.97
2018-07-06T01:45:33.862Z,5.33
2018-07-06T01:46:13.036Z,5.00
2018-07-06T01:46:52.123Z,4.70
2018-07-06T01:47:31.180Z,4.97
2018-07-06T01:48:10.052Z,5.20
2018-07-06T01:48:49.199Z,4.97
2018-07-06T01:49:28.457Z,5.40
2018-07-06T01:50:07.527Z,5.17
2018-07-06T01:50:46.547Z,5.00
2018-07-06T01:51:25.527Z,4.60
2018-07-06T01:52:04.600Z,4.77
2018-07-06T01:52:43.723Z,5.30
2018-07-06T01:53:22.987Z,5.10
2018-07-06T01:54:02.010Z,5.23
2018-07-06T01:54:40.984Z,5.23
2018-07-06T01:55:19.972Z,4.87
2018-07-06T01:55:58.909Z,4.80
2018-07-06T01:56:38.048Z,5.00
2018-07-06T01:57:17.062Z,5.57
2018-07-06T01:57:56.135Z,5.47
2018-07-06T01:58:35.076Z,5.70
2018-07-06T01:59:14.117Z,5.53
2018-07-06T01:59:53.155Z,5.13
2018-07-06T02:00:32.396Z,5.47
2018-07-06T02:01:11.261Z,5.90
2018-07-06T02:01:50.355Z,4.83
2018-07-06T02:02:29.550Z,5.50
2018-07-06T02:03:08.497Z,5.27
2018-07-06T02:03:47.622Z,5.73
2018-07-06T02:04:26.643Z,5.23
2018-07-06T02:05:05.708Z,5.00
2018-07-06T02:05:44.971Z,5.17
2018-07-06T02:06:24.013Z,5.10
2018-07-06T02:07:03.004Z,5.87
2018-07-06T02:07:42.094Z,5.70
2018-07-06T02:08:21.236Z,5.57
2018-07-06T02:09:00.204Z,5.20
2018-07-06T02:09:39.045Z,5.57
2018-07-06T02:10:18.108Z,5.60
2018-07-06T02:10:56.987Z,5.47
2018-07-06T02:11:36.056Z,5.00
2018-07-06T02:12:15.104Z,5.33
2018-07-06T02:12:54.036Z,5.43
2018-07-06T02:13:33.141Z,5.40
2018-07-06T02:14:12.178Z,5.20
2018-07-06T02:14:51.417Z,5.60
2018-07-06T02:15:24.628Z,5.60
2018-07-06T02:16:04.074Z,4.90
2018-07-06T02:16:43.092Z,5.33
2018-07-06T02:17:22.199Z,5.43
2018-07-06T02:18:01.139Z,5.60
2018-07-06T02:18:40.390Z,5.33
2018-07-06T02:19:19.412Z,5.60
2018-07-06T02:19:58.560Z,5.30
2018-07-06T02:20:37.713Z,5.70
2018-07-06T02:21:17.524Z,5.53
2018-07-06T02:21:56.620Z,5.90
2018-07-06T02:22:35.747Z,5.30
2018-07-06T02:23:14.780Z,5.37
2018-07-06T02:23:53.977Z,5.37
2018-07-06T02:24:33.005Z,5.50
2018-07-06T02:25:12.220Z,5.60
2018-07-06T02:25:51.232Z,5.63
2018-07-06T02:26:30.371Z,6.00
2018-07-06T02:27:09.496Z,5.30
2018-07-06T02:27:48.320Z,5.43
2018-07-06T02:28:27.375Z,5.70
2018-07-06T02:29:06.407Z,5.93
2018-07-06T02:29:45.448Z,5.93
2018-07-06T02:30:24.460Z,5.03
2018-07-06T02:31:03.662Z,5.60
2018-07-06T02:31:42.488Z,5.40
2018-07-06T02:32:15.519Z,5.20
2018-07-06T02:32:54.619Z,5.80
2018-07-06T02:33:33.639Z,5.50
2018-07-06T02:34:12.686Z,5.47
2018-07-06T02:34:51.598Z,5.20
2018-07-06T02:35:30.649Z,5.77
2018-07-06T02:36:09.920Z,5.23
2018-07-06T02:36:48.779Z,6.47
2018-07-06T02:37:28.274Z,5.67
2018-07-06T02:38:07.204Z,6.00
2018-07-06T02:38:46.204Z,5.60
2018-07-06T02:39:25.312Z,5.57
2018-07-06T02:40:04.452Z,5.80
2018-07-06T02:40:43.571Z,5.50
2018-07-06T02:41:22.623Z,5.97
2018-07-06T02:42:02.164Z,6.20
2018-07-06T02:42:41.266Z,5.33
2018-07-06T02:43:20.473Z,5.73
2018-07-06T02:43:59.332Z,5.93
2018-07-06T02:44:38.547Z,5.83
2018-07-06T02:45:17.697Z,5.93
2018-07-06T02:45:56.756Z,5.50
2018-07-06T02:46:35.832Z,5.87
2018-07-06T02:47:15.136Z,6.03
2018-07-06T02:47:54.029Z,6.20
2018-07-06T02:48:32.958Z,6.00
2018-07-06T02:49:11.899Z,6.20
2018-07-06T02:49:50.918Z,5.80
2018-07-06T02:50:30.033Z,5.67
2018-07-06T02:51:08.892Z,5.90
2018-07-06T02:51:47.731Z,6.50
2018-07-06T02:52:26.800Z,5.57
2018-07-06T02:53:05.768Z,5.73
2018-07-06T02:53:44.872Z,5.90
2018-07-06T02:54:24.063Z,5.77
2018-07-06T02:55:03.245Z,6.40
2018-07-06T02:55:43.295Z,5.97
2018-07-06T02:56:22.384Z,6.70
2018-07-06T02:57:01.397Z,6.13
2018-07-06T02:57:40.413Z,6.00
2018-07-06T02:58:19.413Z,6.73
2018-07-06T02:58:58.455Z,5.90
2018-07-06T02:59:37.416Z,5.87
2018-07-06T03:00:16.473Z,6.77
2018-07-06T03:00:55.620Z,6.37
2018-07-06T03:01:34.452Z,6.33
2018-07-06T03:02:13.421Z,6.00
2018-07-06T03:02:52.403Z,6.70
2018-07-06T03:03:31.404Z,6.57
2018-07-06T03:04:10.473Z,6.13
2018-07-06T03:04:49.556Z,6.73
2018-07-06T03:05:28.784Z,6.47
2018-07-06T03:06:07.685Z,7.37
2018-07-06T03:06:46.737Z,6.27
2018-07-06T03:07:25.920Z,6.00
2018-07-06T03:08:04.897Z,6.43
2018-07-06T03:08:44.113Z,7.37
2018-07-06T03:09:22.999Z,6.30
2018-07-06T03:10:01.880Z,6.60
2018-07-06T03:10:40.999Z,6.83
2018-07-06T03:11:19.984Z,6.70
2018-07-06T03:11:58.993Z,6.90
2018-07-06T03:12:37.995Z,6.50
2018-07-06T03:13:17.496Z,6.87
2018-07-06T03:13:56.764Z,6.87
2018-07-06T03:14:35.709Z,6.73
2018-07-06T03:15:14.674Z,7.03
2018-07-06T03:15:53.728Z,7.33
2018-07-06T03:16:32.752Z,6.70
2018-07-06T03:17:11.770Z,7.23
2018-07-06T03:17:50.662Z,6.53
2018-07-06T03:18:30.046Z,7.10
2018-07-06T03:19:09.115Z,7.23
2018-07-06T03:19:48.149Z,6.20
2018-07-06T03:20:23.247Z,7.20
2018-07-06T03:21:02.388Z,6.33
2018-07-06T03:21:41.478Z,7.57
2018-07-06T03:22:20.718Z,7.27
2018-07-06T03:22:59.816Z,7.03
2018-07-06T03:23:38.763Z,6.87
2018-07-06T03:24:18.810Z,7.20
2018-07-06T03:24:57.920Z,7.30
2018-07-06T03:25:37.121Z,7.67
2018-07-06T03:26:16.161Z,7.00
2018-07-06T03:26:55.312Z,7.27
2018-07-06T03:27:34.368Z,7.77
2018-07-06T03:28:13.354Z,7.17
2018-07-06T03:28:52.547Z,7.57
2018-07-06T03:29:31.376Z,7.07
2018-07-06T03:30:10.510Z,6.73
2018-07-06T03:30:49.567Z,7.17
2018-07-06T03:31:28.812Z,7.23
2018-07-06T03:32:07.823Z,6.93
2018-07-06T03:32:46.815Z,7.80
2018-07-06T03:33:25.862Z,6.87
2018-07-06T03:34:04.956Z,7.03
2018-07-06T03:34:43.990Z,7.23
2018-07-06T03:35:23.044Z,8.13
2018-07-06T03:36:02.190Z,8.00
2018-07-06T03:36:41.086Z,7.47
2018-07-06T03:37:20.182Z,7.60
2018-07-06T03:37:59.027Z,6.73
2018-07-06T03:38:38.195Z,7.33
2018-07-06T03:39:17.319Z,7.67
2018-07-06T03:39:56.349Z,7.13
2018-07-06T03:40:35.487Z,7.73
2018-07-06T03:41:14.488Z,7.57
2018-07-06T03:41:53.596Z,7.77
2018-07-06T03:42:32.692Z,7.00
2018-07-06T03:43:11.728Z,7.47
2018-07-06T03:43:51.007Z,7.43
2018-07-06T03:44:30.064Z,8.07
2018-07-06T03:45:09.084Z,6.93
2018-07-06T03:45:47.973Z,7.60
2018-07-06T03:46:27.083Z,7.80
2018-07-06T03:47:06.098Z,8.53
2018-07-06T03:47:45.293Z,7.37
2018-07-06T03:48:27.096Z,7.20
2018-07-06T03:49:06.000Z,7.97
2018-07-06T03:49:45.283Z,7.50
2018-07-06T03:50:24.173Z,8.00
2018-07-06T03:51:03.053Z,7.50
2018-07-06T03:51:42.174Z,7.43
2018-07-06T03:52:21.328Z,8.60
2018-07-06T03:53:00.153Z,8.10
2018-07-06T03:53:39.040Z,7.67
2018-07-06T03:54:18.048Z,8.37
2018-07-06T03:54:56.843Z,8.00
2018-07-06T03:55:36.007Z,7.97
2018-07-06T03:56:15.120Z,7.43
2018-07-06T03:56:54.136Z,7.60
2018-07-06T03:57:33.256Z,7.07
2018-07-06T03:58:12.284Z,7.27
2018-07-06T03:58:51.937Z,8.33
2018-07-06T03:59:31.048Z,8.50
2018-07-06T04:00:10.142Z,8.30
2018-07-06T04:00:49.235Z,7.80
2018-07-06T04:01:28.358Z,8.23
2018-07-06T04:02:07.439Z,7.37
2018-07-06T04:02:46.436Z,8.13
2018-07-06T04:03:25.517Z,7.53
2018-07-06T04:03:58.582Z,7.83
2018-07-06T04:04:37.632Z,7.77
2018-07-06T04:05:16.573Z,7.20
2018-07-06T04:05:55.681Z,6.93
2018-07-06T04:06:34.592Z,7.43
2018-07-06T04:07:13.713Z,8.30
2018-07-06T04:07:52.746Z,7.33
2018-07-06T04:08:31.735Z,8.77
2018-07-06T04:09:10.906Z,8.07
2018-07-06T04:09:49.868Z,7.90
2018-07-06T04:10:28.867Z,7.07
2018-07-06T04:11:08.009Z,7.80
2018-07-06T04:11:47.047Z,7.87
2018-07-06T04:12:26.336Z,8.33
2018-07-06T04:13:05.433Z,7.93
2018-07-06T04:13:44.532Z,7.60
2018-07-06T04:14:23.521Z,7.60
2018-07-06T04:15:02.445Z,6.90
2018-07-06T04:15:41.519Z,7.03
2018-07-06T04:16:20.561Z,7.30
2018-07-06T04:16:59.699Z,7.43
2018-07-06T04:17:38.872Z,7.60
2018-07-06T04:18:17.983Z,7.73
2018-07-06T04:19:02.461Z,6.93
2018-07-06T04:19:41.430Z,7.60
2018-07-06T04:20:20.506Z,7.20
2018-07-06T04:20:59.494Z,7.57
2018-07-06T04:21:38.384Z,7.27
2018-07-06T04:22:17.423Z,7.53
2018-07-06T04:22:56.628Z,7.17
2018-07-06T04:23:35.741Z,7.47
2018-07-06T04:24:15.093Z,6.70
2018-07-06T04:24:54.168Z,7.20
2018-07-06T04:25:33.214Z,7.47
2018-07-06T04:26:12.362Z,7.33
2018-07-06T04:26:51.384Z,7.10
2018-07-06T04:27:30.376Z,7.10
2018-07-06T04:28:09.492Z,7.40
2018-07-06T04:28:48.237Z,7.27
2018-07-06T04:29:27.330Z,6.93
2018-07-06T04:30:06.314Z,6.73
2018-07-06T04:30:45.923Z,7.00
2018-07-06T04:31:25.654Z,7.03
2018-07-06T04:32:04.679Z,7.03
2018-07-06T04:32:43.707Z,7.43
2018-07-06T04:33:23.086Z,7.37
2018-07-06T04:34:02.165Z,7.17
2018-07-06T04:34:41.331Z,8.07
2018-07-06T04:35:20.378Z,7.23
2018-07-06T04:35:59.891Z,8.87
2018-07-06T04:36:38.850Z,7.40
2018-07-06T04:37:17.806Z,15.23
2018-07-06T04:37:56.847Z,11.90
2018-07-06T04:38:35.967Z,9.13
2018-07-06T04:39:14.848Z,9.40
2018-07-06T04:39:53.908Z,7.77
2018-07-06T04:40:32.859Z,7.93
2018-07-06T04:41:12.259Z,7.77
2018-07-06T04:41:51.196Z,8.10
2018-07-06T04:42:30.375Z,8.27
2018-07-06T04:43:04.027Z,7.43
2018-07-06T04:43:43.141Z,7.10
2018-07-06T04:44:27.372Z,8.37
2018-07-06T04:46:29.605Z,6.53
2018-07-06T04:47:08.603Z,7.70
2018-07-06T04:47:47.697Z,8.10
2018-07-06T04:48:26.988Z,7.47
2018-07-06T04:49:05.896Z,7.93
2018-07-06T04:49:45.013Z,8.37
2018-07-06T04:50:23.882Z,8.07
2018-07-06T04:51:03.484Z,8.80
2018-07-06T04:51:42.676Z,9.07
2018-07-06T04:52:21.700Z,12.77
2018-07-06T04:53:00.805Z,9.70
2018-07-06T04:53:39.861Z,8.27
2018-07-06T04:54:18.946Z,8.60
2018-07-06T04:54:57.961Z,8.70
2018-07-06T04:55:36.934Z,8.00
2018-07-06T04:56:15.936Z,8.43
2018-07-06T04:56:55.068Z,7.70
2018-07-06T04:57:33.941Z,8.53
2018-07-06T04:58:07.046Z,7.97
2018-07-06T04:58:45.923Z,8.70
2018-07-06T04:59:24.984Z,8.93
2018-07-06T05:00:04.441Z,9.43
2018-07-06T05:00:43.373Z,9.50
2018-07-06T05:01:22.484Z,8.33
2018-07-06T05:02:01.409Z,8.70
2018-07-06T05:02:40.356Z,9.37
2018-07-06T05:03:13.581Z,9.60
2018-07-06T05:03:52.707Z,9.27
2018-07-06T05:04:31.845Z,8.50
2018-07-06T05:05:11.057Z,9.43
2018-07-06T05:05:49.933Z,9.30
2018-07-06T05:06:29.060Z,8.90
2018-07-06T05:07:08.017Z,8.57
2018-07-06T05:07:47.031Z,8.77
2018-07-06T05:08:25.900Z,8.80
2018-07-06T05:09:05.210Z,9.40
2018-07-06T05:09:44.360Z,8.83
2018-07-06T05:10:23.494Z,8.73
2018-07-06T05:11:02.432Z,9.20
2018-07-06T05:11:41.482Z,8.73
2018-07-06T05:12:20.816Z,8.77
2018-07-06T05:12:59.751Z,9.80
2018-07-06T05:14:14.778Z,9.80
2018-07-06T05:14:53.640Z,9.47
2018-07-06T05:15:32.602Z,8.63
2018-07-06T05:16:11.628Z,9.90
2018-07-06T05:16:50.615Z,8.97
2018-07-06T05:17:29.465Z,9.83
2018-07-06T05:18:08.350Z,9.30
2018-07-06T05:18:47.361Z,9.37
2018-07-06T05:19:26.343Z,8.77
2018-07-06T05:20:05.340Z,9.20
2018-07-06T05:20:45.032Z,9.53
2018-07-06T05:21:24.348Z,9.10
2018-07-06T05:22:03.401Z,9.80
2018-07-06T05:22:36.573Z,9.03
2018-07-06T05:23:15.676Z,9.03
2018-07-06T05:23:54.740Z,9.27
2018-07-06T05:24:33.706Z,9.30
2018-07-06T05:25:12.815Z,9.40
2018-07-06T05:25:51.892Z,8.83
2018-07-06T05:26:30.951Z,9.13
2018-07-06T05:27:09.980Z,10.03
2018-07-06T05:27:48.975Z,10.10
2018-07-06T05:28:27.885Z,11.20
2018-07-06T05:29:07.144Z,9.87
2018-07-06T05:29:46.036Z,10.47
2018-07-06T05:30:24.896Z,10.30
2018-07-06T05:31:03.813Z,9.93
2018-07-06T05:31:42.792Z,11.30
2018-07-06T05:32:21.832Z,10.87
2018-07-06T05:33:01.007Z,10.17
2018-07-06T05:33:39.983Z,10.67
2018-07-06T05:34:18.942Z,11.20
2018-07-06T05:34:57.844Z,11.13
2018-07-06T05:35:36.740Z,11.10
2018-07-06T05:36:15.636Z,11.13
2018-07-06T05:36:55.184Z,11.37
2018-07-06T05:37:34.217Z,10.93
2018-07-06T05:38:13.169Z,11.33
2018-07-06T05:38:52.236Z,11.47
2018-07-06T05:39:31.203Z,13.13
2018-07-06T05:40:10.333Z,11.97
2018-07-06T05:40:49.228Z,12.10
2018-07-06T05:41:28.290Z,12.17
2018-07-06T05:42:07.556Z,11.63
2018-07-06T05:42:46.384Z,10.73
2018-07-06T05:43:25.533Z,10.00
2018-07-06T05:44:04.469Z,11.07
2018-07-06T05:44:43.258Z,11.63
2018-07-06T05:45:22.273Z,11.33
2018-07-06T05:46:01.352Z,11.40
2018-07-06T05:46:40.496Z,11.07
2018-07-06T05:47:19.453Z,12.83
2018-07-06T05:47:52.582Z,13.23
2018-07-06T05:48:31.573Z,12.63
2018-07-06T05:49:10.904Z,12.00
2018-07-06T05:49:50.339Z,13.03
2018-07-06T05:50:29.294Z,12.40
2018-07-06T05:51:08.508Z,12.63
2018-07-06T05:51:41.774Z,13.80
2018-07-06T05:52:20.727Z,14.17
2018-07-06T05:52:59.661Z,14.90
2018-07-06T05:53:38.625Z,13.87
2018-07-06T05:54:11.777Z,14.37
2018-07-06T05:54:50.811Z,12.77
2018-07-06T05:55:29.855Z,12.90
2018-07-06T05:56:09.057Z,13.17
2018-07-06T05:56:47.867Z,12.33
2018-07-06T05:57:26.855Z,11.97
2018-07-06T05:58:05.736Z,12.47
2018-07-06T05:58:45.258Z,12.30
2018-07-06T05:59:24.139Z,12.97
2018-07-06T06:00:03.489Z,13.50
2018-07-06T06:00:42.452Z,14.07
2018-07-06T06:01:21.416Z,13.13
2018-07-06T06:02:00.432Z,12.93
2018-07-06T06:02:39.316Z,14.47
2018-07-06T06:03:18.380Z,13.07
2018-07-06T06:03:57.491Z,14.17
2018-07-06T06:04:36.505Z,13.40
2018-07-06T06:05:15.333Z,13.40
2018-07-06T06:05:54.293Z,14.83
2018-07-06T06:06:33.442Z,14.20
2018-07-06T06:07:12.508Z,12.93
2018-07-06T06:07:38.972Z,13.33
2018-07-06T06:08:05.448Z,12.23
2018-07-06T06:08:31.913Z,13.10
2018-07-06T06:08:58.476Z,13.57
2018-07-06T06:09:26.299Z,13.77
2018-07-06T06:09:54.150Z,12.93
2018-07-06T06:10:23.233Z,12.70
2018-07-06T06:10:50.845Z,13.43
2018-07-06T06:11:18.639Z,13.03
2018-07-06T06:11:46.355Z,13.37
2018-07-06T06:12:14.247Z,13.40
2018-07-06T06:12:41.910Z,13.73
2018-07-06T06:13:09.665Z,12.87
2018-07-06T06:13:37.195Z,13.60
2018-07-06T06:14:04.858Z,13.17
2018-07-06T06:14:32.592Z,13.20
2018-07-06T06:15:00.254Z,13.77
2018-07-06T06:15:28.017Z,13.07
2018-07-06T06:15:55.637Z,14.20
2018-07-06T06:16:23.287Z,14.57
2018-07-06T06:16:50.969Z,14.77
2018-07-06T06:17:18.607Z,14.90
2018-07-06T06:17:46.351Z,13.50
2018-07-06T06:18:14.184Z,15.40
2018-07-06T06:18:42.017Z,14.77
2018-07-06T06:19:09.529Z,14.40
2018-07-06T06:19:37.152Z,13.93
2018-07-06T06:20:04.976Z,13.63
2018-07-06T06:20:32.704Z,13.40
2018-07-06T06:21:00.526Z,13.73
2018-07-06T06:21:28.127Z,13.97
2018-07-06T06:21:55.740Z,13.70
2018-07-06T06:22:23.384Z,15.17
2018-07-06T06:22:51.167Z,15.37
2018-07-06T06:23:19.115Z,15.47
2018-07-06T06:23:46.775Z,15.57
2018-07-06T06:24:14.577Z,14.93
2018-07-06T06:24:42.156Z,14.73
2018-07-06T06:25:09.816Z,14.47
2018-07-06T06:25:37.430Z,16.33
2018-07-06T06:26:05.058Z,15.57
2018-07-06T06:26:32.649Z,16.10
2018-07-06T06:27:01.155Z,16.10
2018-07-06T06:27:28.928Z,15.97
2018-07-06T06:27:56.431Z,14.90
2018-07-06T06:28:24.002Z,15.67
2018-07-06T06:28:51.892Z,16.63
2018-07-06T06:29:19.586Z,16.60
2018-07-06T06:29:48.885Z,17.00
2018-07-06T06:30:16.568Z,16.80
2018-07-06T06:30:44.247Z,16.47
2018-07-06T06:31:12.007Z,18.37
2018-07-06T06:31:39.785Z,17.77
2018-07-06T06:32:08.302Z,17.87
2018-07-06T06:32:36.048Z,19.90
2018-07-06T06:33:03.762Z,26.23
2018-07-06T06:33:31.474Z,25.13
2018-07-06T06:34:01.038Z,22.47
2018-07-06T06:34:28.664Z,20.43
2018-07-06T06:34:56.285Z,18.27
2018-07-06T06:35:23.940Z,18.57
2018-07-06T06:35:51.778Z,17.17
2018-07-06T06:36:19.516Z,19.00
2018-07-06T06:36:48.503Z,17.87
2018-07-06T06:37:16.225Z,18.13
2018-07-06T06:37:44.344Z,19.20
2018-07-06T06:38:12.089Z,18.87
2018-07-06T06:38:39.867Z,18.90
2018-07-06T06:39:07.512Z,20.33
2018-07-06T06:39:35.192Z,20.33
2018-07-06T06:40:02.902Z,21.03
2018-07-06T06:40:30.573Z,21.23
2018-07-06T06:40:58.281Z,20.70
2018-07-06T06:41:26.023Z,21.97
2018-07-06T06:41:54.281Z,21.97
2018-07-06T06:42:22.411Z,24.53
2018-07-06T06:42:50.099Z,23.43
2018-07-06T06:43:18.118Z,23.93
2018-07-06T06:43:46.264Z,25.43
2018-07-06T06:44:14.093Z,25.23
2018-07-06T06:44:41.785Z,26.50
2018-07-06T06:45:09.556Z,25.17
2018-07-06T06:45:37.165Z,25.73
2018-07-06T06:46:04.968Z,25.27
2018-07-06T06:46:32.676Z,24.10
2018-07-06T06:47:00.523Z,24.57
2018-07-06T06:47:28.445Z,26.87
2018-07-06T06:47:56.148Z,27.13
2018-07-06T06:48:23.959Z,26.60
2018-07-06T06:48:51.688Z,26.00
2018-07-06T06:49:19.227Z,26.77
2018-07-06T06:49:47.021Z,26.63
2018-07-06T06:50:14.763Z,25.93
2018-07-06T06:50:42.509Z,26.70
2018-07-06T06:51:10.661Z,26.40
2018-07-06T06:51:38.254Z,26.37
2018-07-06T06:52:05.840Z,25.93
2018-07-06T06:52:33.383Z,29.97
2018-07-06T06:53:02.112Z,28.53
2018-07-06T06:53:29.858Z,26.93
2018-07-06T06:53:57.583Z,28.70
2018-07-06T06:54:25.668Z,29.53
2018-07-06T06:54:53.504Z,29.00
2018-07-06T06:55:21.160Z,29.37
2018-07-06T06:55:48.864Z,30.20
2018-07-06T06:56:16.504Z,29.77
2018-07-06T06:56:44.299Z,29.13
2018-07-06T06:57:12.046Z,29.67
2018-07-06T06:57:39.660Z,30.17
2018-07-06T06:58:07.348Z,29.40
2018-07-06T06:58:34.952Z,29.43
2018-07-06T06:59:02.722Z,29.17
2018-07-06T06:59:30.412Z,30.87
2018-07-06T06:59:58.151Z,30.67
2018-07-06T07:00:27.662Z,31.83
2018-07-06T07:00:53.651Z,30.57
2018-07-06T07:01:22.042Z,33.87
2018-07-06T07:01:49.769Z,31.80
2018-07-06T07:02:17.430Z,31.03
2018-07-06T07:02:45.065Z,31.77
2018-07-06T07:03:12.735Z,29.90
2018-07-06T07:03:40.341Z,29.77
2018-07-06T07:04:07.992Z,30.47
2018-07-06T07:04:35.782Z,29.13
2018-07-06T07:05:03.418Z,30.20
2018-07-06T07:05:31.358Z,29.23
2018-07-06T07:05:59.083Z,28.67
2018-07-06T07:06:26.753Z,29.47
2018-07-06T07:06:54.745Z,29.73
2018-07-06T07:07:22.466Z,32.13
2018-07-06T07:07:50.462Z,30.60
2018-07-06T07:08:18.060Z,31.77
2018-07-06T07:08:46.528Z,32.07
2018-07-06T07:09:14.278Z,31.93
2018-07-06T07:09:42.072Z,31.67
2018-07-06T07:10:09.711Z,31.30
2018-07-06T07:10:37.414Z,30.20
2018-07-06T07:11:05.064Z,29.90
2018-07-06T07:11:32.964Z,30.20
2018-07-06T07:12:00.649Z,33.37
2018-07-06T07:12:28.327Z,26.87
2018-07-06T07:12:56.028Z,26.33
2018-07-06T07:13:23.832Z,28.73
2018-07-06T07:13:51.972Z,30.73
2018-07-06T07:14:20.307Z,29.03
2018-07-06T07:14:47.932Z,29.70
2018-07-06T07:15:15.660Z,31.83
2018-07-06T07:15:43.793Z,30.13
2018-07-06T07:16:11.402Z,30.83
2018-07-06T07:16:39.343Z,28.90
2018-07-06T07:17:07.036Z,29.43
2018-07-06T07:17:34.889Z,30.60
2018-07-06T07:18:02.581Z,28.53
2018-07-06T07:18:30.611Z,30.37
2018-07-06T07:18:58.297Z,30.57
2018-07-06T07:19:26.013Z,38.13
2018-07-06T07:19:54.010Z,36.63
2018-07-06T07:20:21.691Z,31.43
2018-07-06T07:20:49.331Z,28.33
2018-07-06T07:21:17.227Z,28.03
2018-07-06T07:21:44.962Z,33.57
2018-07-06T07:22:12.636Z,31.27
2018-07-06T07:22:40.308Z,32.67
2018-07-06T07:23:07.992Z,32.70
2018-07-06T07:23:35.553Z,31.30
2018-07-06T07:24:03.109Z,30.13
2018-07-06T07:24:32.224Z,31.67
2018-07-06T07:24:59.960Z,32.80
2018-07-06T07:25:27.965Z,32.33
2018-07-06T07:25:55.847Z,32.57
2018-07-06T07:26:23.633Z,32.60
2018-07-06T07:26:51.323Z,30.27
2018-07-06T07:27:19.049Z,31.77
2018-07-06T07:27:46.684Z,30.23
2018-07-06T07:28:14.358Z,29.33
2018-07-06T07:28:42.093Z,30.87
2018-07-06T07:29:09.740Z,31.40
2018-07-06T07:29:37.451Z,30.50
2018-07-06T07:30:05.070Z,29.63
2018-07-06T07:30:32.720Z,30.50
2018-07-06T07:31:00.412Z,32.57
2018-07-06T07:31:28.454Z,32.10
2018-07-06T07:31:57.081Z,31.60
2018-07-06T07:32:24.745Z,31.13
2018-07-06T07:32:52.572Z,30.57
2018-07-06T07:33:20.321Z,30.83
2018-07-06T07:33:47.988Z,29.67
2018-07-06T07:34:15.696Z,31.00
2018-07-06T07:34:43.404Z,30.57
2018-07-06T07:35:11.039Z,29.50
2018-07-06T07:35:38.736Z,28.80
2018-07-06T07:36:06.384Z,29.03
2018-07-06T07:36:34.144Z,28.20
2018-07-06T07:37:03.086Z,30.27
2018-07-06T07:37:31.060Z,29.53
2018-07-06T07:37:59.007Z,29.33
2018-07-06T07:38:26.969Z,30.57
2018-07-06T07:38:54.656Z,29.67
2018-07-06T07:39:22.421Z,28.20
2018-07-06T07:39:50.257Z,29.13
2018-07-06T07:40:19.237Z,27.30
2018-07-06T07:40:47.030Z,27.50
2018-07-06T07:41:14.741Z,28.37
2018-07-06T07:41:42.500Z,28.17
2018-07-06T07:42:10.570Z,27.37
2018-07-06T07:42:38.397Z,26.63
2018-07-06T07:43:06.112Z,29.50
2018-07-06T07:43:33.876Z,27.20
2018-07-06T07:44:01.554Z,26.43
2018-07-06T07:44:29.275Z,27.17
2018-07-06T07:44:56.859Z,26.30
2018-07-06T07:45:25.172Z,27.90
2018-07-06T07:45:52.915Z,29.27
2018-07-06T07:46:20.493Z,29.67
2018-07-06T07:46:48.377Z,29.07
2018-07-06T07:47:16.099Z,28.00
2018-07-06T07:47:43.660Z,26.27
2018-07-06T07:48:11.281Z,29.17
2018-07-06T07:48:39.027Z,26.67
2018-07-06T07:49:06.651Z,26.20
2018-07-06T07:49:34.265Z,25.33
2018-07-06T07:50:01.972Z,25.77
2018-07-06T07:50:29.669Z,26.80
2018-07-06T07:52:15.205Z,26.40
2018-07-06T07:52:56.786Z,26.90
2018-07-06T07:53:35.925Z,27.00